createdAt,value
2022-12-24T00:01:35.646Z,21.20
2022-12-24T00:04:02.122Z,28.63
2022-12-24T00:06:28.519Z,25.98
2022-12-24T00:08:54.933Z,24.42
2022-12-24T00:11:21.789Z,22.52
2022-12-24T00:13:48.976Z,31.23
2022-12-24T00:16:15.910Z,23.58
2022-12-24T00:18:46.156Z,28.08
2022-12-24T00:21:13.466Z,20.55
2022-12-24T00:23:40.852Z,25.33
2022-12-24T00:26:07.493Z,20.90
2022-12-24T00:28:33.931Z,28.88
2022-12-24T00:31:00.403Z,30.55
2022-12-24T00:33:26.924Z,31.38
2022-12-24T00:35:53.807Z,27.60
2022-12-24T00:38:20.376Z,25.10
2022-12-24T00:40:46.795Z,19.83
2022-12-24T00:43:13.451Z,27.90
2022-12-24T00:45:40.221Z,23.98
2022-12-24T00:48:06.823Z,31.67
2022-12-24T00:50:33.302Z,26.75
2022-12-24T00:52:59.770Z,21.05
2022-12-24T00:55:26.166Z,25.85
2022-12-24T00:57:52.720Z,28.45
2022-12-24T01:00:19.588Z,25.00
2022-12-24T01:02:46.247Z,29.17
2022-12-24T01:05:12.881Z,30.20
2022-12-24T01:07:43.681Z,24.13
2022-12-24T01:10:12.645Z,23.58
2022-12-24T01:12:39.524Z,25.80
2022-12-24T01:15:07.143Z,30.80
2022-12-24T01:17:35.517Z,29.08
2022-12-24T01:20:02.135Z,31.02
2022-12-24T01:22:28.910Z,23.73
2022-12-24T01:24:55.303Z,20.80
2022-12-24T01:27:22.000Z,23.27
2022-12-24T01:29:48.387Z,19.60
2022-12-24T01:32:14.923Z,31.92
2022-12-24T01:34:41.412Z,25.25
2022-12-24T01:37:07.862Z,21.30
2022-12-24T01:39:34.489Z,26.05
2022-12-24T01:42:19.675Z,33.35
2022-12-24T01:44:51.248Z,30.90
2022-12-24T01:47:25.667Z,32.88
2022-12-24T01:49:56.126Z,24.98
2022-12-24T01:52:30.542Z,29.25
2022-12-24T01:55:07.885Z,33.53
2022-12-24T01:57:45.071Z,29.30
2022-12-24T02:00:14.084Z,26.70
2022-12-24T02:02:43.919Z,32.75
2022-12-24T02:05:26.926Z,27.33
2022-12-24T02:07:53.502Z,30.05
2022-12-24T02:10:19.970Z,28.60
2022-12-24T02:12:47.561Z,27.85
2022-12-24T02:15:17.025Z,32.92
2022-12-24T02:18:11.092Z,28.45
2022-12-24T02:21:09.532Z,28.63
2022-12-24T02:23:41.998Z,22.50
2022-12-24T02:26:25.808Z,32.83
2022-12-24T02:31:37.661Z,31.83
2022-12-24T02:34:34.376Z,29.80
2022-12-24T02:37:16.326Z,32.40
2022-12-24T02:39:52.786Z,34.22
2022-12-24T02:42:25.655Z,21.05
2022-12-24T02:44:58.153Z,28.05
2022-12-24T02:47:27.558Z,26.13
2022-12-24T02:49:54.320Z,36.53
2022-12-24T02:52:33.243Z,35.97
2022-12-24T02:55:04.326Z,30.92
2022-12-24T02:57:50.833Z,26.77
2022-12-24T03:00:21.675Z,32.17
2022-12-24T03:03:22.181Z,27.15
2022-12-24T03:05:54.980Z,33.67
2022-12-24T03:08:59.147Z,22.33
2022-12-24T03:11:26.018Z,23.30
2022-12-24T03:13:55.288Z,29.02
2022-12-24T03:16:26.489Z,24.00
2022-12-24T03:18:55.556Z,29.95
2022-12-24T03:21:32.978Z,23.30
2022-12-24T03:23:59.495Z,30.92
2022-12-24T03:26:28.620Z,24.35
2022-12-24T03:28:55.903Z,23.77
2022-12-24T03:31:22.454Z,31.17
2022-12-24T03:33:49.572Z,27.63
2022-12-24T03:36:16.497Z,28.73
2022-12-24T03:38:43.081Z,24.02
2022-12-24T03:41:09.548Z,26.88
2022-12-24T03:43:36.073Z,30.10
2022-12-24T03:46:06.573Z,27.67
2022-12-24T03:48:35.292Z,29.13
2022-12-24T03:51:02.268Z,35.78
2022-12-24T03:53:28.848Z,23.17
2022-12-24T03:55:55.250Z,35.42
2022-12-24T03:58:21.680Z,19.05
2022-12-24T04:00:48.139Z,21.80
2022-12-24T04:03:14.700Z,29.58
2022-12-24T04:05:41.436Z,22.05
2022-12-24T04:08:07.934Z,28.58
2022-12-24T04:10:34.354Z,26.98
2022-12-24T04:13:00.869Z,24.63
2022-12-24T04:15:27.244Z,25.35
2022-12-24T04:17:53.641Z,20.73
2022-12-24T04:20:20.023Z,27.30
2022-12-24T04:22:46.444Z,23.20
2022-12-24T04:25:12.846Z,27.98
2022-12-24T04:27:39.227Z,23.15
2022-12-24T04:30:06.499Z,18.42
2022-12-24T04:32:32.892Z,24.25
2022-12-24T04:34:59.261Z,19.83
2022-12-24T04:37:25.669Z,21.17
2022-12-24T04:39:52.055Z,20.17
2022-12-24T04:42:18.601Z,17.77
2022-12-24T04:44:45.012Z,21.20
2022-12-24T04:47:11.396Z,19.77
2022-12-24T04:49:38.095Z,20.13
2022-12-24T04:52:05.020Z,19.45
2022-12-24T04:54:31.419Z,21.92
2022-12-24T04:56:57.883Z,20.95
2022-12-24T04:59:24.270Z,24.23
2022-12-24T05:01:50.792Z,25.65
2022-12-24T05:04:17.258Z,18.77
2022-12-24T05:06:44.625Z,14.93
2022-12-24T05:09:11.007Z,20.73
2022-12-24T05:11:37.442Z,10.50
2022-12-24T05:14:03.938Z,18.75
2022-12-24T05:16:30.409Z,21.08
2022-12-24T05:18:56.915Z,21.45
2022-12-24T05:21:25.214Z,18.05
2022-12-24T05:24:10.956Z,17.85
2022-12-24T05:26:48.861Z,14.27
2022-12-24T05:29:15.695Z,16.58
2022-12-24T05:31:44.899Z,18.92
2022-12-24T05:34:12.918Z,16.77
2022-12-24T05:36:39.869Z,19.25
2022-12-24T05:39:11.471Z,15.25
2022-12-24T05:41:40.460Z,19.30
2022-12-24T05:44:06.915Z,21.83
2022-12-24T05:46:33.426Z,21.02
2022-12-24T05:48:59.828Z,21.77
2022-12-24T05:51:26.267Z,20.67
2022-12-24T05:53:52.747Z,22.27
2022-12-24T05:56:22.376Z,19.70
2022-12-24T05:58:49.547Z,20.25
2022-12-24T06:01:16.839Z,19.02
2022-12-24T06:03:43.683Z,20.10
2022-12-24T06:06:13.101Z,25.55
2022-12-24T06:08:41.111Z,20.10
2022-12-24T06:11:11.074Z,21.25
2022-12-24T06:13:37.810Z,16.35
2022-12-24T06:16:07.053Z,17.42
2022-12-24T06:18:35.183Z,17.88
2022-12-24T06:21:02.479Z,15.95
2022-12-24T06:23:31.530Z,20.95
2022-12-24T06:26:00.808Z,25.05
2022-12-24T06:28:31.811Z,21.05
2022-12-24T06:31:02.917Z,14.40
2022-12-24T06:33:31.432Z,20.58
2022-12-24T06:35:58.185Z,20.27
2022-12-24T06:38:24.677Z,16.67
2022-12-24T06:40:51.269Z,17.05
2022-12-24T06:43:17.739Z,20.73
2022-12-24T06:45:46.170Z,12.93
2022-12-24T06:48:13.357Z,14.68
2022-12-24T06:50:40.134Z,21.65
2022-12-24T06:53:07.033Z,20.38
2022-12-24T06:55:33.583Z,17.73
2022-12-24T06:57:59.980Z,20.10
2022-12-24T07:00:26.399Z,21.15
2022-12-24T07:02:52.897Z,20.25
2022-12-24T07:05:19.404Z,23.60
2022-12-24T07:07:45.791Z,24.52
2022-12-24T07:10:15.331Z,30.05
2022-12-24T07:12:42.186Z,21.88
2022-12-24T07:15:09.748Z,19.85
2022-12-24T07:17:36.636Z,19.27
2022-12-24T07:20:03.785Z,19.60
2022-12-24T07:22:30.184Z,24.42
2022-12-24T07:24:56.637Z,25.23
2022-12-24T07:27:23.165Z,18.08
2022-12-24T07:29:49.544Z,18.25
2022-12-24T07:32:16.377Z,22.92
2022-12-24T07:34:42.784Z,22.58
2022-12-24T07:37:09.239Z,27.30
2022-12-24T07:39:35.672Z,33.22
2022-12-24T07:42:02.089Z,18.63
2022-12-24T07:44:28.449Z,25.70
2022-12-24T07:46:54.930Z,20.35
2022-12-24T07:49:21.358Z,28.05
2022-12-24T07:51:47.755Z,30.38
2022-12-24T07:54:14.385Z,22.58
2022-12-24T07:56:40.789Z,23.88
2022-12-24T07:59:07.169Z,20.40
2022-12-24T08:01:33.781Z,27.08
2022-12-24T08:04:00.340Z,32.33
2022-12-24T08:06:26.717Z,22.67
2022-12-24T08:08:53.106Z,20.25
2022-12-24T08:11:19.503Z,20.58
2022-12-24T08:13:45.887Z,19.70
2022-12-24T08:16:12.519Z,27.08
2022-12-24T08:18:38.950Z,33.95
2022-12-24T08:21:09.095Z,34.05
2022-12-24T08:23:38.869Z,25.42
2022-12-24T08:26:09.867Z,27.65
2022-12-24T08:28:36.490Z,31.85
2022-12-24T08:31:03.244Z,21.85
2022-12-24T08:33:29.996Z,23.05
2022-12-24T08:35:56.497Z,36.15
2022-12-24T08:38:23.201Z,21.00
2022-12-24T08:40:50.261Z,24.17
2022-12-24T08:43:17.802Z,28.08
2022-12-24T08:45:45.436Z,24.63
2022-12-24T08:48:12.202Z,26.45
2022-12-24T08:50:40.563Z,24.25
2022-12-24T08:53:08.758Z,26.35
2022-12-24T08:55:35.360Z,23.27
2022-12-24T08:58:01.828Z,26.27
2022-12-24T09:00:28.621Z,23.35
2022-12-24T09:02:56.934Z,31.20
2022-12-24T09:05:23.455Z,29.90
2022-12-24T09:07:49.826Z,24.25
2022-12-24T09:10:17.053Z,18.05
2022-12-24T09:12:43.581Z,23.65
2022-12-24T09:15:10.978Z,28.70
2022-12-24T09:17:37.669Z,26.45
2022-12-24T09:20:06.767Z,25.10
2022-12-24T09:22:38.729Z,26.77
2022-12-24T09:25:10.388Z,25.27
2022-12-24T09:27:37.423Z,21.10
2022-12-24T09:30:05.981Z,28.65
2022-12-24T09:32:33.257Z,31.40
2022-12-24T09:34:59.785Z,28.60
2022-12-24T09:37:26.832Z,32.97
2022-12-24T09:39:53.442Z,33.80
2022-12-24T09:42:48.563Z,25.60
2022-12-24T09:45:20.772Z,23.30
2022-12-24T09:47:55.752Z,22.75
2022-12-24T09:50:40.474Z,25.13
2022-12-24T09:53:22.811Z,24.33
2022-12-24T09:55:54.427Z,25.02
2022-12-24T09:58:30.800Z,26.45
2022-12-24T10:00:57.420Z,20.40
2022-12-24T10:03:24.169Z,23.70
2022-12-24T10:06:05.814Z,25.08
2022-12-24T10:08:59.143Z,24.75
2022-12-24T10:11:53.908Z,24.08
2022-12-24T10:14:29.063Z,24.95
2022-12-24T10:17:21.440Z,30.33
2022-12-24T10:19:59.570Z,29.13
2022-12-24T10:22:25.917Z,29.17
2022-12-24T10:25:14.623Z,21.83
2022-12-24T10:27:41.049Z,30.15
2022-12-24T10:30:22.660Z,29.88
2022-12-24T10:32:52.639Z,25.13
2022-12-24T10:35:23.977Z,23.40
2022-12-24T10:37:52.670Z,27.48
2022-12-24T10:40:43.028Z,30.48
2022-12-24T10:43:17.069Z,26.73
2022-12-24T10:45:47.502Z,27.02
2022-12-24T10:48:22.846Z,27.65
2022-12-24T10:50:58.269Z,23.65
2022-12-24T10:53:37.891Z,25.10
2022-12-24T10:56:09.270Z,37.75
2022-12-24T10:58:36.193Z,38.88
2022-12-24T11:01:03.699Z,24.90
2022-12-24T11:03:31.860Z,31.35
2022-12-24T11:06:12.154Z,28.17
2022-12-24T11:08:42.802Z,25.08
2022-12-24T11:11:20.693Z,36.70
2022-12-24T11:13:50.100Z,29.08
2022-12-24T11:16:26.624Z,32.92
2022-12-24T11:18:56.175Z,33.45
2022-12-24T11:21:30.372Z,35.28
2022-12-24T11:23:59.623Z,30.73
2022-12-24T11:26:29.716Z,29.20
2022-12-24T11:29:19.178Z,26.27
2022-12-24T11:31:47.258Z,27.17
2022-12-24T11:34:24.926Z,29.75
2022-12-24T11:36:53.290Z,30.17
2022-12-24T11:39:22.775Z,28.05
2022-12-24T11:41:51.215Z,28.45
2022-12-24T11:44:26.554Z,35.38
2022-12-24T11:46:57.185Z,23.10
2022-12-24T11:49:31.001Z,32.53
2022-12-24T11:52:00.556Z,25.85
2022-12-24T11:54:31.209Z,24.27
2022-12-24T11:57:00.974Z,30.17
2022-12-24T11:59:38.925Z,31.55
2022-12-24T12:02:14.810Z,27.98
2022-12-24T12:04:43.105Z,30.00
2022-12-24T12:07:15.651Z,33.08
2022-12-24T12:09:54.167Z,27.57
2022-12-24T12:12:28.151Z,24.52
2022-12-24T12:14:59.916Z,27.70
2022-12-24T12:17:35.573Z,23.55
2022-12-24T12:20:19.852Z,29.58
2022-12-24T12:23:12.449Z,28.67
2022-12-24T12:25:48.399Z,28.02
2022-12-24T12:28:31.906Z,24.50
2022-12-24T12:31:20.331Z,20.13
2022-12-24T12:33:52.729Z,23.27
2022-12-24T12:36:30.466Z,29.02
2022-12-24T12:38:56.956Z,22.42
2022-12-24T12:41:32.471Z,28.27
2022-12-24T12:44:01.755Z,26.58
2022-12-24T12:46:28.195Z,28.70
2022-12-24T12:49:20.697Z,26.08
2022-12-24T12:52:03.123Z,24.17
2022-12-24T12:54:36.237Z,24.30
2022-12-24T12:57:22.120Z,28.50
2022-12-24T13:00:03.335Z,24.63
2022-12-24T13:02:40.901Z,22.40
2022-12-24T13:05:45.207Z,24.33
2022-12-24T13:11:05.497Z,23.85
2022-12-24T13:13:57.163Z,21.95
2022-12-24T13:16:58.030Z,23.05
2022-12-24T13:19:47.053Z,23.45
2022-12-24T13:22:18.247Z,21.98
2022-12-24T13:24:52.210Z,27.40
2022-12-24T13:27:24.578Z,24.13
2022-12-24T13:29:54.864Z,19.70
2022-12-24T13:32:21.396Z,21.63
2022-12-24T13:35:00.441Z,25.65
2022-12-24T13:37:35.976Z,23.52
2022-12-24T13:40:08.459Z,22.35
2022-12-24T13:42:59.484Z,20.65
2022-12-24T13:45:29.302Z,18.60
2022-12-24T13:47:56.863Z,24.88
2022-12-24T13:50:50.929Z,23.88
2022-12-24T13:53:29.315Z,19.90
2022-12-24T13:55:59.277Z,22.88
2022-12-24T13:58:26.036Z,23.73
2022-12-24T14:00:58.936Z,20.75
2022-12-24T14:03:36.875Z,20.77
2022-12-24T14:06:10.426Z,18.75
2022-12-24T14:08:43.480Z,18.33
2022-12-24T14:11:23.175Z,19.30
2022-12-24T14:13:51.346Z,15.73
2022-12-24T14:16:46.548Z,17.70
2022-12-24T14:19:15.956Z,15.48
2022-12-24T14:21:51.782Z,18.00
2022-12-24T14:24:25.416Z,16.48
2022-12-24T14:26:59.353Z,21.02
2022-12-24T14:29:32.329Z,19.67
2022-12-24T14:32:00.627Z,14.20
2022-12-24T14:34:27.371Z,18.48
2022-12-24T14:36:56.163Z,21.00
2022-12-24T14:39:22.478Z,18.95
2022-12-24T14:41:59.917Z,29.42
2022-12-24T14:44:37.490Z,18.30
2022-12-24T14:47:23.119Z,21.70
2022-12-24T14:50:32.917Z,21.58
2022-12-24T14:53:19.107Z,25.17
2022-12-24T14:55:48.494Z,19.52
2022-12-24T14:58:25.117Z,19.42
2022-12-24T15:00:57.717Z,15.18
2022-12-24T15:03:32.566Z,20.77
2022-12-24T15:06:02.029Z,17.63
2022-12-24T15:08:32.243Z,18.35
2022-12-24T15:11:04.904Z,17.38
2022-12-24T15:13:42.821Z,17.38
2022-12-24T15:16:13.123Z,18.00
2022-12-24T15:18:55.250Z,23.45
2022-12-24T15:21:30.034Z,13.80
2022-12-24T15:23:56.997Z,19.75
2022-12-24T15:26:37.263Z,22.67
2022-12-24T15:29:20.629Z,20.67
2022-12-24T15:31:52.869Z,21.65
2022-12-24T15:34:35.210Z,22.40
2022-12-24T15:37:12.028Z,21.38
2022-12-24T15:39:39.607Z,17.60
2022-12-24T15:42:14.116Z,29.23
2022-12-24T15:44:44.082Z,23.17
2022-12-24T15:47:25.562Z,24.58
2022-12-24T15:49:52.777Z,20.25
2022-12-24T15:52:24.531Z,20.55
2022-12-24T15:54:57.417Z,22.30
2022-12-24T15:57:29.734Z,20.95
2022-12-24T15:59:58.347Z,21.73
2022-12-24T16:02:24.848Z,25.88
2022-12-24T16:04:51.483Z,27.65
2022-12-24T16:07:25.859Z,20.45
2022-12-24T16:09:52.310Z,20.83
2022-12-24T16:12:25.551Z,51.75
2022-12-24T16:14:57.471Z,24.17
2022-12-24T16:17:30.317Z,28.83
2022-12-24T16:20:04.139Z,24.70
2022-12-24T16:22:35.150Z,25.85
2022-12-24T16:25:22.792Z,24.00
2022-12-24T16:32:01.465Z,19.13
2022-12-24T16:34:30.662Z,28.55
2022-12-24T16:36:58.253Z,25.45
2022-12-24T16:39:33.562Z,23.60
2022-12-24T16:42:20.937Z,23.60
2022-12-24T16:44:47.404Z,25.73
2022-12-24T16:47:18.368Z,30.35
2022-12-24T16:49:44.793Z,29.77
2022-12-24T16:52:23.124Z,29.08
2022-12-24T16:54:50.086Z,23.35
2022-12-24T16:57:17.128Z,21.40
2022-12-24T16:59:43.721Z,26.75
2022-12-24T17:02:15.902Z,25.05
2022-12-24T17:04:42.882Z,24.17
2022-12-24T17:07:14.120Z,26.63
2022-12-24T17:09:40.648Z,24.88
2022-12-24T17:12:07.229Z,27.02
2022-12-24T17:14:33.864Z,21.05
2022-12-24T17:17:00.407Z,27.95
2022-12-24T17:19:26.830Z,22.23
2022-12-24T17:21:53.352Z,23.50
2022-12-24T17:24:19.753Z,25.05
2022-12-24T17:26:46.470Z,24.80
2022-12-24T17:29:14.215Z,25.30
2022-12-24T17:31:42.610Z,26.88
2022-12-24T17:34:09.589Z,31.83
2022-12-24T17:36:36.305Z,29.73
2022-12-24T17:39:02.698Z,30.08
2022-12-24T17:41:29.408Z,27.25
2022-12-24T17:43:55.781Z,27.13
2022-12-24T17:46:23.701Z,29.60
2022-12-24T17:48:52.238Z,28.85
2022-12-24T17:51:22.456Z,28.33
2022-12-24T17:53:49.850Z,34.67
2022-12-24T17:56:17.440Z,32.45
2022-12-24T17:58:45.612Z,27.70
2022-12-24T18:01:30.302Z,30.05
2022-12-24T18:03:59.174Z,37.22
2022-12-24T18:06:26.018Z,36.60
2022-12-24T18:08:52.525Z,40.40
2022-12-24T18:11:34.805Z,32.00
2022-12-24T18:14:03.023Z,71.03
2022-12-24T18:16:31.346Z,100.63
2022-12-24T18:18:59.276Z,106.10
2022-12-24T18:21:28.354Z,95.72
2022-12-24T18:23:56.505Z,103.90
2022-12-24T18:26:25.353Z,104.13
2022-12-24T18:28:54.556Z,85.35
2022-12-24T18:31:21.305Z,64.38
2022-12-24T18:33:49.288Z,52.10
2022-12-24T18:36:16.353Z,46.13
2022-12-24T18:38:42.867Z,42.00
2022-12-24T18:41:15.234Z,44.95
2022-12-24T18:43:41.822Z,37.13
2022-12-24T18:46:09.162Z,36.28
2022-12-24T18:48:36.132Z,40.17
2022-12-24T18:51:03.114Z,37.03
2022-12-24T18:53:29.570Z,32.55
2022-12-24T18:56:02.606Z,33.33
2022-12-24T18:58:28.993Z,43.72
2022-12-24T19:00:55.516Z,41.22
2022-12-24T19:03:22.054Z,41.75
2022-12-24T19:05:48.532Z,43.88
2022-12-24T19:08:47.300Z,43.65
2022-12-24T19:11:01.646Z,45.92
2022-12-24T19:13:28.068Z,39.30
2022-12-24T19:15:54.573Z,34.92
2022-12-24T19:18:20.995Z,35.47
2022-12-24T19:20:47.405Z,36.60
2022-12-24T19:23:14.874Z,35.55
2022-12-24T19:25:41.361Z,36.20
2022-12-24T19:28:10.637Z,39.60
2022-12-24T19:30:40.075Z,51.30
2022-12-24T19:33:06.501Z,47.58
2022-12-24T19:35:33.196Z,41.08
2022-12-24T19:37:59.709Z,41.90
2022-12-24T19:40:26.513Z,40.70
2022-12-24T19:42:53.206Z,49.67
2022-12-24T19:45:20.855Z,50.35
2022-12-24T19:47:48.629Z,36.53
2022-12-24T19:50:16.085Z,55.80
2022-12-24T19:52:42.860Z,46.17
2022-12-24T19:55:10.109Z,44.35
2022-12-24T19:57:36.739Z,41.25
2022-12-24T20:00:05.619Z,42.45
2022-12-24T20:02:38.730Z,36.45
2022-12-24T20:05:06.134Z,37.05
2022-12-24T20:07:32.615Z,51.20
2022-12-24T20:09:59.093Z,48.58
2022-12-24T20:12:25.604Z,37.25
2022-12-24T20:14:55.469Z,43.55
2022-12-24T20:17:21.879Z,43.88
2022-12-24T20:19:48.269Z,37.33
2022-12-24T20:22:14.680Z,43.30
2022-12-24T20:24:41.108Z,40.05
2022-12-24T20:27:07.564Z,41.13
2022-12-24T20:29:33.924Z,38.58
2022-12-24T20:32:00.405Z,38.70
2022-12-24T20:34:26.827Z,42.50
2022-12-24T20:36:53.291Z,33.15
2022-12-24T20:39:19.711Z,40.38
2022-12-24T20:41:46.164Z,39.38
2022-12-24T20:44:12.625Z,43.47
2022-12-24T20:46:39.189Z,34.35
2022-12-24T20:49:05.610Z,41.17
2022-12-24T20:51:32.175Z,42.47
2022-12-24T20:54:01.276Z,42.65
2022-12-24T20:56:28.281Z,33.65
2022-12-24T20:58:54.730Z,38.78
2022-12-24T21:01:24.540Z,41.53
2022-12-24T21:03:53.362Z,39.15
2022-12-24T21:06:20.333Z,48.20
2022-12-24T21:08:48.875Z,36.33
2022-12-24T21:11:34.237Z,31.95
2022-12-24T21:14:03.706Z,41.30
2022-12-24T21:16:32.448Z,34.47
2022-12-24T21:18:59.154Z,42.67
2022-12-24T21:21:25.575Z,31.73
2022-12-24T21:23:52.325Z,36.90
2022-12-24T21:26:19.741Z,29.17
2022-12-24T21:28:46.279Z,35.13
2022-12-24T21:31:14.414Z,44.33
2022-12-24T21:33:41.426Z,42.50
2022-12-24T21:36:09.469Z,41.47
2022-12-24T21:38:36.052Z,31.55
2022-12-24T21:41:09.198Z,44.53
2022-12-24T21:43:36.637Z,37.88
2022-12-24T21:46:11.907Z,32.03
2022-12-24T21:48:57.074Z,35.97
2022-12-24T21:51:25.963Z,34.28
2022-12-24T21:54:10.864Z,26.48
2022-12-24T21:56:56.962Z,33.85
2022-12-24T21:59:27.268Z,34.72
2022-12-24T22:01:54.496Z,30.45
2022-12-24T22:04:21.106Z,40.80
2022-12-24T22:07:06.214Z,35.58
2022-12-24T22:09:51.134Z,30.83
2022-12-24T22:12:17.860Z,33.60
2022-12-24T22:14:44.298Z,33.13
2022-12-24T22:17:10.801Z,38.33
2022-12-24T22:19:37.238Z,33.05
2022-12-24T22:22:04.160Z,25.40
2022-12-24T22:24:30.573Z,29.63
2022-12-24T22:26:57.650Z,30.65
2022-12-24T22:29:24.560Z,29.33
2022-12-24T22:31:50.985Z,29.25
2022-12-24T22:34:17.390Z,31.90
2022-12-24T22:36:44.148Z,27.15
2022-12-24T22:39:10.560Z,21.95
2022-12-24T22:41:37.001Z,24.00
2022-12-24T22:44:03.413Z,27.75
2022-12-24T22:46:30.178Z,28.50
2022-12-24T22:48:56.646Z,32.75
2022-12-24T22:51:23.098Z,28.52
2022-12-24T22:53:49.641Z,17.27
2022-12-24T22:56:19.736Z,21.98
2022-12-24T22:58:46.772Z,27.63
2022-12-24T23:01:13.365Z,26.80
2022-12-24T23:03:39.971Z,26.15
2022-12-24T23:06:07.575Z,23.92
2022-12-24T23:08:36.259Z,30.25
2022-12-24T23:11:12.997Z,23.48
2022-12-24T23:14:00.539Z,23.67
2022-12-24T23:16:28.541Z,23.20
2022-12-24T23:18:58.865Z,22.65
2022-12-24T23:21:25.433Z,24.05
2022-12-24T23:23:52.602Z,24.50
2022-12-24T23:26:20.810Z,25.95
2022-12-24T23:28:48.558Z,29.95
2022-12-24T23:31:16.066Z,31.80
2022-12-24T23:33:42.545Z,29.98
2022-12-24T23:36:09.893Z,25.00
2022-12-24T23:38:36.342Z,25.45
2022-12-24T23:41:05.504Z,25.42
2022-12-24T23:43:31.930Z,26.73
2022-12-24T23:45:58.632Z,31.77
2022-12-24T23:48:25.700Z,24.00
2022-12-24T23:50:52.540Z,27.35
2022-12-24T23:53:19.739Z,25.02
2022-12-24T23:55:47.054Z,28.80
2022-12-24T23:58:15.713Z,22.73
